Time;durP1;ratioP1;P1;durP2;ratioP2;P2;SDS_P1;SDS_P2;PMS_P1;PMS_P2;Temp;Humidity;BMP_temperature;BMP_pressure;BME280_temperature;BME280_humidity;BME280_pressure;Samples;Min_cycle;Max_cycle;Signal;HPM_P1;HPM_P2
2023/12/30 00:00:22;;;;;;;271.60;217.77;;;;;;;;;;4967001;28;20054;-64
2023/12/30 00:02:48;;;;;;;148.82;118.55;;;;;;;;;;4967881;28;20457;-65
2023/12/30 00:05:14;;;;;;;276.55;191.18;;;;;;;;;;4966716;28;20169;-64
2023/12/30 00:07:39;;;;;;;109.30;80.43;;;;;;;;;;4965833;28;20031;-64
2023/12/30 00:10:05;;;;;;;169.55;132.43;;;;;;;;;;4968588;28;20058;-66
2023/12/30 00:12:30;;;;;;;187.63;141.13;;;;;;;;;;4968562;28;20125;-64
2023/12/30 00:14:55;;;;;;;183.80;139.40;;;;;;;;;;4966227;28;20026;-64
2023/12/30 00:17:21;;;;;;;203.68;155.43;;;;;;;;;;4966662;28;20039;-66
2023/12/30 00:19:46;;;;;;;206.75;161.50;;;;;;;;;;4950086;28;20034;-64
2023/12/30 00:22:12;;;;;;;208.25;164.98;;;;;;;;;;4957822;28;20061;-63
2023/12/30 00:24:37;;;;;;;163.05;119.80;;;;;;;;;;4967142;28;20351;-65
2023/12/30 00:27:03;;;;;;;164.32;125.10;;;;;;;;;;4965549;28;20022;-64
2023/12/30 00:29:28;;;;;;;208.70;164.00;;;;;;;;;;4966597;28;20026;-63
2023/12/30 00:31:53;;;;;;;235.65;181.27;;;;;;;;;;4964821;28;20346;-64
2023/12/30 00:34:19;;;;;;;319.33;236.50;;;;;;;;;;4965787;28;20121;-65
2023/12/30 00:36:44;;;;;;;319.05;241.50;;;;;;;;;;4963178;28;20358;-64
2023/12/30 00:39:10;;;;;;;350.05;269.92;;;;;;;;;;4964646;28;20471;-64
2023/12/30 00:41:35;;;;;;;347.95;294.60;;;;;;;;;;4952862;28;20464;-64
2023/12/30 00:44:01;;;;;;;239.23;196.15;;;;;;;;;;4955374;28;20575;-64
2023/12/30 00:46:26;;;;;;;232.60;197.43;;;;;;;;;;4964349;28;20462;-64
2023/12/30 00:48:51;;;;;;;215.48;173.10;;;;;;;;;;4967581;28;20053;-65
2023/12/30 00:51:17;;;;;;;184.85;146.88;;;;;;;;;;4970346;28;20043;-64
2023/12/30 00:53:42;;;;;;;188.35;147.18;;;;;;;;;;4957822;28;20101;-64
2023/12/30 00:56:07;;;;;;;202.48;156.73;;;;;;;;;;4971550;28;22584;-65
2023/12/30 00:58:33;;;;;;;183.02;145.02;;;;;;;;;;4969036;28;20658;-63
2023/12/30 01:00:59;;;;;;;122.07;93.18;;;;;;;;;;4956516;28;20065;-63
2023/12/30 01:03:24;;;;;;;142.57;116.78;;;;;;;;;;4967701;28;20034;-63
2023/12/30 01:05:49;;;;;;;120.32;92.43;;;;;;;;;;4970437;28;20455;-63
2023/12/30 01:08:15;;;;;;;197.93;162.80;;;;;;;;;;4972140;28;20354;-63
2023/12/30 01:10:40;;;;;;;220.13;176.57;;;;;;;;;;4967185;28;20047;-63
2023/12/30 01:13:07;;;;;;;252.85;157.23;;;;;;;;;;4970376;28;20030;-65
2023/12/30 01:15:33;;;;;;;442.98;275.05;;;;;;;;;;4969790;28;20106;-66
2023/12/30 01:17:58;;;;;;;166.18;116.65;;;;;;;;;;4969302;28;20126;-63
2023/12/30 01:20:24;;;;;;;182.13;146.18;;;;;;;;;;4971735;28;20027;-63
2023/12/30 01:22:49;;;;;;;240.15;154.32;;;;;;;;;;4970033;28;20113;-63
2023/12/30 01:25:14;;;;;;;185.45;132.07;;;;;;;;;;4969827;28;20030;-64
2023/12/30 01:27:40;;;;;;;160.45;127.25;;;;;;;;;;4967497;28;20015;-63
2023/12/30 01:30:05;;;;;;;153.38;119.93;;;;;;;;;;4961100;28;20038;-65
2023/12/30 01:32:31;;;;;;;153.27;124.35;;;;;;;;;;4971549;28;20056;-63
2023/12/30 01:34:56;;;;;;;130.13;104.32;;;;;;;;;;4970873;28;20031;-65
2023/12/30 01:37:21;;;;;;;248.65;209.70;;;;;;;;;;4968326;28;20350;-66
2023/12/30 01:39:47;;;;;;;218.25;175.35;;;;;;;;;;4959668;28;20061;-65
2023/12/30 01:42:12;;;;;;;97.15;79.65;;;;;;;;;;4967667;28;20112;-65
2023/12/30 01:44:37;;;;;;;180.32;146.15;;;;;;;;;;4958184;28;20142;-66
2023/12/30 01:47:04;;;;;;;101.10;75.30;;;;;;;;;;4969230;28;20038;-66
2023/12/30 01:49:29;;;;;;;62.35;50.72;;;;;;;;;;4969679;28;20081;-66
2023/12/30 01:51:54;;;;;;;190.82;150.88;;;;;;;;;;4967460;28;20069;-67
2023/12/30 01:54:21;;;;;;;139.00;98.30;;;;;;;;;;4957238;28;20026;-65
2023/12/30 01:56:48;;;;;;;230.70;168.60;;;;;;;;;;4967917;28;20138;-65
2023/12/30 01:59:14;;;;;;;120.22;87.35;;;;;;;;;;4969399;28;20069;-64
2023/12/30 02:01:40;;;;;;;146.05;77.18;;;;;;;;;;4968647;28;20081;-64
2023/12/30 02:04:05;;;;;;;48.92;36.17;;;;;;;;;;4971101;28;20426;-66
2023/12/30 02:06:31;;;;;;;104.05;74.20;;;;;;;;;;4970953;28;20183;-63
2023/12/30 02:08:56;;;;;;;64.90;50.05;;;;;;;;;;4968036;28;20326;-64
2023/12/30 02:11:21;;;;;;;108.60;80.10;;;;;;;;;;4969155;28;21001;-64
2023/12/30 02:13:47;;;;;;;73.10;56.47;;;;;;;;;;4962749;28;20069;-65
2023/12/30 02:16:13;;;;;;;53.75;42.47;;;;;;;;;;4956694;28;20035;-64
2023/12/30 02:18:38;;;;;;;84.80;65.60;;;;;;;;;;4955890;28;20023;-64
2023/12/30 02:21:04;;;;;;;61.20;45.00;;;;;;;;;;4967271;28;20030;-64
2023/12/30 02:23:30;;;;;;;40.22;33.28;;;;;;;;;;4970920;28;20042;-66
2023/12/30 02:25:55;;;;;;;46.20;37.13;;;;;;;;;;4965364;28;20034;-64
2023/12/30 02:28:20;;;;;;;87.05;64.72;;;;;;;;;;4967489;28;20801;-66
2023/12/30 02:30:45;;;;;;;72.47;50.70;;;;;;;;;;4957079;28;20034;-64
2023/12/30 02:33:11;;;;;;;51.17;39.85;;;;;;;;;;4968790;28;20022;-64
2023/12/30 02:35:36;;;;;;;28.85;23.70;;;;;;;;;;4969045;28;20039;-64
2023/12/30 02:38:02;;;;;;;23.55;20.13;;;;;;;;;;4962824;28;20030;-64
2023/12/30 02:40:27;;;;;;;20.75;18.45;;;;;;;;;;4956757;28;20035;-64
2023/12/30 02:42:52;;;;;;;22.35;18.98;;;;;;;;;;4968862;28;20034;-64
2023/12/30 02:45:17;;;;;;;20.40;18.13;;;;;;;;;;4955368;28;20052;-64
2023/12/30 02:47:43;;;;;;;19.40;17.02;;;;;;;;;;4959425;28;20049;-65
2023/12/30 02:50:08;;;;;;;20.98;18.00;;;;;;;;;;4959419;28;20088;-65
2023/12/30 02:52:34;;;;;;;21.77;18.80;;;;;;;;;;4969505;28;20038;-64
2023/12/30 02:55:00;;;;;;;22.13;19.52;;;;;;;;;;4965528;28;20486;-67
2023/12/30 02:57:26;;;;;;;20.25;18.15;;;;;;;;;;4959957;28;20049;-66
2023/12/30 02:59:51;;;;;;;28.27;23.67;;;;;;;;;;4965744;28;20498;-65
2023/12/30 03:02:16;;;;;;;19.73;17.58;;;;;;;;;;4959939;28;20034;-65
2023/12/30 03:04:42;;;;;;;18.77;16.77;;;;;;;;;;4965903;28;20034;-64
2023/12/30 03:07:07;;;;;;;110.47;75.03;;;;;;;;;;4967034;28;20110;-66
2023/12/30 03:09:33;;;;;;;44.13;32.50;;;;;;;;;;4957263;28;20362;-64
2023/12/30 03:11:59;;;;;;;21.85;19.55;;;;;;;;;;4968575;28;20439;-65
2023/12/30 03:14:25;;;;;;;41.92;29.45;;;;;;;;;;4958981;28;20031;-64
2023/12/30 03:16:50;;;;;;;28.58;21.25;;;;;;;;;;4964831;28;20093;-66
2023/12/30 03:19:16;;;;;;;58.50;47.13;;;;;;;;;;4957295;28;20157;-68
2023/12/30 03:21:41;;;;;;;54.45;45.95;;;;;;;;;;4966638;28;20122;-67
2023/12/30 03:24:06;;;;;;;59.17;48.42;;;;;;;;;;4958187;28;20110;-65
2023/12/30 03:26:32;;;;;;;60.20;50.70;;;;;;;;;;4953422;28;20037;-64
2023/12/30 03:28:57;;;;;;;62.90;51.08;;;;;;;;;;4965703;28;20033;-68
2023/12/30 03:31:23;;;;;;;59.58;48.30;;;;;;;;;;4968845;28;20030;-66
2023/12/30 03:33:49;;;;;;;67.75;58.05;;;;;;;;;;4968457;28;20101;-66
2023/12/30 03:36:14;;;;;;;70.47;56.53;;;;;;;;;;4953202;28;20478;-64
2023/12/30 03:38:39;;;;;;;69.63;56.35;;;;;;;;;;4967824;28;20054;-67
2023/12/30 03:41:05;;;;;;;99.35;76.93;;;;;;;;;;4966577;28;21073;-64
2023/12/30 03:43:30;;;;;;;95.93;73.13;;;;;;;;;;4965078;28;20366;-65
2023/12/30 03:45:55;;;;;;;113.53;87.38;;;;;;;;;;4967111;28;20303;-64
2023/12/30 03:48:21;;;;;;;150.60;101.13;;;;;;;;;;4969197;28;20026;-66
2023/12/30 03:50:46;;;;;;;149.52;103.47;;;;;;;;;;4967437;28;20031;-64
2023/12/30 03:53:11;;;;;;;81.82;59.63;;;;;;;;;;4967222;28;20022;-66
2023/12/30 03:55:37;;;;;;;112.97;89.32;;;;;;;;;;4967799;28;20146;-65
2023/12/30 03:58:02;;;;;;;70.93;58.10;;;;;;;;;;4965734;28;20364;-64
2023/12/30 04:00:27;;;;;;;92.45;71.82;;;;;;;;;;4967962;28;20691;-65
2023/12/30 04:02:53;;;;;;;90.22;72.60;;;;;;;;;;4961984;28;20121;-65
2023/12/30 04:05:18;;;;;;;87.72;71.78;;;;;;;;;;4959116;28;20069;-65
2023/12/30 04:07:43;;;;;;;87.28;69.72;;;;;;;;;;4965116;28;20066;-67
2023/12/30 04:10:09;;;;;;;84.63;68.25;;;;;;;;;;4955217;28;20053;-65
2023/12/30 04:12:35;;;;;;;102.28;75.10;;;;;;;;;;4965990;28;20038;-65
2023/12/30 04:15:00;;;;;;;93.97;69.05;;;;;;;;;;4965755;28;20054;-66
2023/12/30 04:17:26;;;;;;;109.07;77.00;;;;;;;;;;4966512;28;20366;-65
2023/12/30 04:19:51;;;;;;;107.47;82.53;;;;;;;;;;4956853;28;20045;-67
2023/12/30 04:22:16;;;;;;;88.68;69.53;;;;;;;;;;4963215;28;20030;-65
2023/12/30 04:24:42;;;;;;;84.63;68.07;;;;;;;;;;4957499;28;20223;-65
2023/12/30 04:27:07;;;;;;;85.60;69.70;;;;;;;;;;4953926;28;20053;-64
2023/12/30 04:29:32;;;;;;;86.47;65.82;;;;;;;;;;4957224;28;20026;-66
2023/12/30 04:31:58;;;;;;;92.70;71.53;;;;;;;;;;4962049;28;20047;-64
2023/12/30 04:34:23;;;;;;;135.00;103.97;;;;;;;;;;4952806;28;20065;-64
2023/12/30 04:36:48;;;;;;;145.02;111.80;;;;;;;;;;4963059;28;20037;-64
2023/12/30 04:39:14;;;;;;;137.82;108.55;;;;;;;;;;4955415;28;20049;-63
2023/12/30 04:41:40;;;;;;;154.55;112.90;;;;;;;;;;4955023;28;20030;-64
2023/12/30 04:44:05;;;;;;;141.80;112.95;;;;;;;;;;4965089;28;20395;-65
2023/12/30 04:46:30;;;;;;;142.10;107.18;;;;;;;;;;4954374;28;20026;-65
2023/12/30 04:48:55;;;;;;;144.00;114.70;;;;;;;;;;4970448;28;20026;-63
2023/12/30 04:51:21;;;;;;;170.77;129.63;;;;;;;;;;4964800;28;20034;-63
2023/12/30 04:53:46;;;;;;;132.43;101.78;;;;;;;;;;4954969;28;20107;-65
2023/12/30 04:56:15;;;;;;;80.18;63.15;;;;;;;;;;4961742;28;20454;-64
2023/12/30 04:58:40;;;;;;;116.15;94.40;;;;;;;;;;4957551;28;20035;-64
2023/12/30 05:01:06;;;;;;;111.10;86.25;;;;;;;;;;4964972;28;20669;-65
2023/12/30 05:03:31;;;;;;;129.48;108.03;;;;;;;;;;4967940;28;20057;-67
2023/12/30 05:05:57;;;;;;;118.60;97.05;;;;;;;;;;4966415;28;20117;-66
2023/12/30 05:08:22;;;;;;;116.60;96.95;;;;;;;;;;4963035;28;20085;-65
2023/12/30 05:10:47;;;;;;;95.07;81.35;;;;;;;;;;4956722;28;20042;-65
2023/12/30 05:13:13;;;;;;;105.30;83.63;;;;;;;;;;4957216;28;20438;-66
2023/12/30 05:15:38;;;;;;;115.45;91.57;;;;;;;;;;4965204;28;20427;-65
2023/12/30 05:18:04;;;;;;;119.57;96.57;;;;;;;;;;4963239;28;20432;-64
2023/12/30 05:20:29;;;;;;;104.15;87.20;;;;;;;;;;4965784;28;20118;-65
2023/12/30 05:22:58;;;;;;;89.10;76.60;;;;;;;;;;4966335;28;20045;-63
2023/12/30 05:25:23;;;;;;;106.13;90.20;;;;;;;;;;4954605;28;20035;-64
2023/12/30 05:27:48;;;;;;;71.72;61.78;;;;;;;;;;4964995;28;20039;-64
2023/12/30 05:30:14;;;;;;;71.50;61.45;;;;;;;;;;4962351;28;20023;-64
2023/12/30 05:32:39;;;;;;;78.18;66.35;;;;;;;;;;4965196;28;20042;-64
2023/12/30 05:35:05;;;;;;;100.07;81.43;;;;;;;;;;4966426;28;20060;-65
2023/12/30 05:37:30;;;;;;;77.80;63.10;;;;;;;;;;4969800;28;20081;-65
2023/12/30 05:39:55;;;;;;;106.82;86.25;;;;;;;;;;4959522;28;20033;-65
2023/12/30 05:42:21;;;;;;;110.03;92.38;;;;;;;;;;4960905;28;20595;-65
2023/12/30 05:44:47;;;;;;;150.52;125.53;;;;;;;;;;4970147;28;20034;-64
2023/12/30 05:47:12;;;;;;;146.32;117.13;;;;;;;;;;4969701;28;20125;-66
2023/12/30 05:49:39;;;;;;;197.55;159.10;;;;;;;;;;4970290;28;20113;-64
2023/12/30 05:52:05;;;;;;;213.88;163.48;;;;;;;;;;4971057;28;20038;-63
2023/12/30 05:54:30;;;;;;;184.52;149.25;;;;;;;;;;4970139;28;20108;-67
2023/12/30 05:56:55;;;;;;;203.00;171.02;;;;;;;;;;4962665;28;20037;-64
2023/12/30 05:59:21;;;;;;;223.02;188.80;;;;;;;;;;4971702;28;20036;-65
2023/12/30 06:01:46;;;;;;;151.30;131.05;;;;;;;;;;4965722;28;20117;-63
2023/12/30 06:04:15;;;;;;;127.72;108.68;;;;;;;;;;4961329;28;20035;-64
2023/12/30 06:06:41;;;;;;;161.05;130.82;;;;;;;;;;4969183;28;20101;-65
2023/12/30 06:09:06;;;;;;;169.75;146.13;;;;;;;;;;4969643;28;20530;-64
2023/12/30 06:11:32;;;;;;;133.45;118.03;;;;;;;;;;4970286;28;20107;-64
2023/12/30 06:13:57;;;;;;;190.95;159.25;;;;;;;;;;4971168;28;20026;-67
2023/12/30 06:16:23;;;;;;;145.48;119.57;;;;;;;;;;4957230;28;20097;-64
2023/12/30 06:18:48;;;;;;;148.80;124.65;;;;;;;;;;4970104;28;20254;-64
2023/12/30 06:21:13;;;;;;;284.05;247.13;;;;;;;;;;4968100;28;20031;-65
2023/12/30 06:23:39;;;;;;;258.23;218.88;;;;;;;;;;4969163;28;20034;-66
2023/12/30 06:26:04;;;;;;;281.05;233.98;;;;;;;;;;4961873;28;20173;-66
2023/12/30 06:28:29;;;;;;;217.15;178.05;;;;;;;;;;4971966;28;20984;-65
2023/12/30 06:30:55;;;;;;;152.43;123.97;;;;;;;;;;4968044;28;20038;-64
2023/12/30 06:33:21;;;;;;;100.22;87.00;;;;;;;;;;4967431;28;20034;-64
2023/12/30 06:35:46;;;;;;;105.22;83.20;;;;;;;;;;4967999;28;20031;-66
2023/12/30 06:38:12;;;;;;;162.73;124.88;;;;;;;;;;4966852;28;20062;-65
2023/12/30 06:40:38;;;;;;;191.57;148.02;;;;;;;;;;4968281;28;20019;-66
2023/12/30 06:43:03;;;;;;;158.02;125.53;;;;;;;;;;4964402;28;20050;-66
2023/12/30 06:45:28;;;;;;;194.15;153.10;;;;;;;;;;4955827;28;20460;-65
2023/12/30 06:47:54;;;;;;;171.02;134.82;;;;;;;;;;4953362;28;20107;-65
2023/12/30 06:50:21;;;;;;;120.70;104.10;;;;;;;;;;4958231;28;20034;-63
2023/12/30 06:52:47;;;;;;;79.53;70.72;;;;;;;;;;4951858;28;20118;-65
2023/12/30 06:55:13;;;;;;;58.03;51.75;;;;;;;;;;4952246;28;20102;-65
2023/12/30 06:57:39;;;;;;;96.10;79.85;;;;;;;;;;4954201;28;20331;-65
2023/12/30 07:00:05;;;;;;;150.88;127.18;;;;;;;;;;4955340;28;20044;-65
2023/12/30 07:02:30;;;;;;;103.88;88.90;;;;;;;;;;4955567;28;20026;-66
2023/12/30 07:04:56;;;;;;;300.00;260.83;;;;;;;;;;4957396;28;20034;-65
2023/12/30 07:07:21;;;;;;;175.02;143.20;;;;;;;;;;4955717;28;20057;-66
2023/12/30 07:09:46;;;;;;;129.85;108.60;;;;;;;;;;4965772;28;20047;-65
2023/12/30 07:12:13;;;;;;;106.72;93.90;;;;;;;;;;4968933;28;20432;-65
2023/12/30 07:14:38;;;;;;;58.95;49.97;;;;;;;;;;4969799;28;20026;-64
2023/12/30 07:17:04;;;;;;;39.72;33.40;;;;;;;;;;4964293;28;20042;-65
2023/12/30 07:19:29;;;;;;;35.13;30.88;;;;;;;;;;4958952;28;20458;-66
2023/12/30 07:21:55;;;;;;;36.88;31.40;;;;;;;;;;4955377;28;20031;-65
2023/12/30 07:24:20;;;;;;;59.70;44.95;;;;;;;;;;4960361;28;20045;-65
2023/12/30 07:26:45;;;;;;;92.50;83.10;;;;;;;;;;4962287;28;20378;-65
2023/12/30 07:29:11;;;;;;;62.00;55.22;;;;;;;;;;4968675;28;20045;-64
2023/12/30 07:31:36;;;;;;;74.65;58.17;;;;;;;;;;4954362;28;20101;-66
2023/12/30 07:34:04;;;;;;;58.78;51.75;;;;;;;;;;4957131;28;20035;-65
2023/12/30 07:36:29;;;;;;;53.63;47.90;;;;;;;;;;4960180;28;20124;-68
2023/12/30 07:38:55;;;;;;;59.25;52.95;;;;;;;;;;4964848;28;20357;-65
2023/12/30 07:41:20;;;;;;;53.35;47.53;;;;;;;;;;4958068;28;20299;-64
2023/12/30 07:43:45;;;;;;;60.20;51.88;;;;;;;;;;4957256;28;20166;-67
2023/12/30 07:46:11;;;;;;;77.97;62.42;;;;;;;;;;4964838;28;20045;-65
2023/12/30 07:48:36;;;;;;;72.38;60.15;;;;;;;;;;4962655;28;20113;-65
2023/12/30 07:51:01;;;;;;;72.75;62.45;;;;;;;;;;4963065;28;20034;-65
2023/12/30 07:53:27;;;;;;;160.05;128.77;;;;;;;;;;4963889;28;20113;-64
2023/12/30 07:55:52;;;;;;;87.50;75.25;;;;;;;;;;4962068;28;20048;-65
2023/12/30 07:58:18;;;;;;;206.65;166.93;;;;;;;;;;4949508;28;20329;-68
2023/12/30 08:00:43;;;;;;;113.35;91.43;;;;;;;;;;4965596;28;20053;-65
2023/12/30 08:03:09;;;;;;;99.82;80.93;;;;;;;;;;4964406;28;20026;-64
2023/12/30 08:05:34;;;;;;;120.78;98.30;;;;;;;;;;4962690;28;20030;-65
2023/12/30 08:07:59;;;;;;;104.50;83.03;;;;;;;;;;4962777;28;20023;-65
2023/12/30 08:10:25;;;;;;;115.70;90.00;;;;;;;;;;4962419;28;20439;-65
2023/12/30 08:12:51;;;;;;;111.68;89.07;;;;;;;;;;4952135;28;20026;-65
2023/12/30 08:15:16;;;;;;;106.32;87.80;;;;;;;;;;4956220;28;20022;-65
2023/12/30 08:17:41;;;;;;;90.47;70.82;;;;;;;;;;4958418;28;20613;-67
2023/12/30 08:20:10;;;;;;;125.47;103.68;;;;;;;;;;4957552;28;20057;-65
2023/12/30 08:22:35;;;;;;;94.90;79.80;;;;;;;;;;4959442;28;20401;-67
2023/12/30 08:25:00;;;;;;;107.55;86.45;;;;;;;;;;4958222;28;20057;-64
2023/12/30 08:27:26;;;;;;;66.40;54.63;;;;;;;;;;4957273;28;20093;-64
2023/12/30 08:29:51;;;;;;;72.70;57.58;;;;;;;;;;4954691;28;20546;-66
2023/12/30 08:32:17;;;;;;;117.63;88.38;;;;;;;;;;4961808;28;20030;-65
2023/12/30 08:34:42;;;;;;;207.63;164.70;;;;;;;;;;4963090;28;20077;-67
2023/12/30 08:37:09;;;;;;;235.32;202.57;;;;;;;;;;4961070;28;20034;-64
2023/12/30 08:39:37;;;;;;;251.82;224.40;;;;;;;;;;4966795;28;20105;-65
2023/12/30 08:42:04;;;;;;;133.45;107.85;;;;;;;;;;4961508;28;20042;-66
2023/12/30 08:44:29;;;;;;;129.32;89.40;;;;;;;;;;4963341;28;20070;-66
2023/12/30 08:46:54;;;;;;;251.00;178.50;;;;;;;;;;4971845;28;20042;-64
2023/12/30 08:49:20;;;;;;;158.43;108.57;;;;;;;;;;4976280;28;20306;-65
2023/12/30 08:51:46;;;;;;;124.28;89.00;;;;;;;;;;4967128;28;21269;-64
2023/12/30 08:54:11;;;;;;;99.60;68.38;;;;;;;;;;4964995;28;20022;-64
2023/12/30 08:56:37;;;;;;;135.15;98.00;;;;;;;;;;4981863;28;20049;-65
2023/12/30 08:59:02;;;;;;;85.18;63.90;;;;;;;;;;4978807;28;20038;-63
2023/12/30 09:01:27;;;;;;;92.40;64.03;;;;;;;;;;4978219;28;20026;-63
2023/12/30 09:03:54;;;;;;;103.07;73.38;;;;;;;;;;4978216;28;20100;-65
2023/12/30 09:06:20;;;;;;;108.00;75.57;;;;;;;;;;4975818;28;20051;-64
2023/12/30 09:08:45;;;;;;;109.45;84.10;;;;;;;;;;4977669;28;20072;-65
2023/12/30 09:11:18;;;;;;;349.05;295.20;;;;;;;;;;4970004;28;20022;-65
2023/12/30 09:13:43;;;;;;;148.85;124.00;;;;;;;;;;4965033;28;20059;-66
2023/12/30 09:16:09;;;;;;;102.57;85.68;;;;;;;;;;4964919;28;20065;-65
2023/12/30 09:18:35;;;;;;;214.10;191.35;;;;;;;;;;4968094;28;20066;-65
2023/12/30 09:21:00;;;;;;;117.53;104.80;;;;;;;;;;4968086;28;20417;-66
2023/12/30 09:23:25;;;;;;;123.88;103.03;;;;;;;;;;4951949;28;20041;-65
2023/12/30 09:25:51;;;;;;;108.38;89.38;;;;;;;;;;4964761;28;20476;-67
2023/12/30 09:28:16;;;;;;;90.88;75.65;;;;;;;;;;4948247;28;20045;-67
2023/12/30 09:30:44;;;;;;;84.15;72.10;;;;;;;;;;4946712;28;20034;-68
2023/12/30 09:33:09;;;;;;;70.38;57.83;;;;;;;;;;4955775;28;20044;-65
2023/12/30 09:35:34;;;;;;;56.78;47.70;;;;;;;;;;4958209;28;20413;-66
2023/12/30 09:38:00;;;;;;;59.13;50.75;;;;;;;;;;4969252;28;20394;-65
2023/12/30 09:40:27;;;;;;;34.33;29.42;;;;;;;;;;4972105;28;20030;-64
2023/12/30 09:42:53;;;;;;;23.75;20.65;;;;;;;;;;4970069;28;20027;-66
2023/12/30 09:45:19;;;;;;;24.63;17.67;;;;;;;;;;4969101;28;20037;-65
2023/12/30 09:47:45;;;;;;;24.75;19.00;;;;;;;;;;4964674;28;20407;-66
2023/12/30 09:50:11;;;;;;;24.67;20.23;;;;;;;;;;4972326;28;20034;-65
2023/12/30 09:52:36;;;;;;;42.72;30.95;;;;;;;;;;4972590;28;20438;-66
2023/12/30 09:55:01;;;;;;;20.73;17.30;;;;;;;;;;4968543;28;20984;-66
2023/12/30 09:57:27;;;;;;;15.02;12.32;;;;;;;;;;4970686;28;20468;-68
2023/12/30 09:59:52;;;;;;;12.57;9.55;;;;;;;;;;4970823;28;20069;-66
2023/12/30 10:02:18;;;;;;;12.38;11.00;;;;;;;;;;4967830;28;20046;-67
2023/12/30 10:04:44;;;;;;;19.05;15.63;;;;;;;;;;4968182;28;20034;-66
2023/12/30 10:07:11;;;;;;;16.08;13.07;;;;;;;;;;4968169;28;20038;-66
2023/12/30 10:09:37;;;;;;;11.85;9.18;;;;;;;;;;4970105;28;20233;-66
2023/12/30 10:12:02;;;;;;;15.18;12.13;;;;;;;;;;4967197;28;20115;-66
2023/12/30 10:14:28;;;;;;;14.13;12.63;;;;;;;;;;4971016;28;20319;-67
2023/12/30 10:16:53;;;;;;;15.48;12.35;;;;;;;;;;4958648;28;20355;-69
2023/12/30 10:19:18;;;;;;;16.33;12.23;;;;;;;;;;4961513;28;20122;-67
2023/12/30 10:21:44;;;;;;;11.43;9.13;;;;;;;;;;4958251;28;20049;-68
2023/12/30 10:24:10;;;;;;;14.25;10.32;;;;;;;;;;4966895;28;20564;-66
2023/12/30 10:26:37;;;;;;;16.67;13.32;;;;;;;;;;4968675;28;20034;-67
2023/12/30 10:29:06;;;;;;;10.95;8.88;;;;;;;;;;4970690;28;20121;-66
2023/12/30 10:31:31;;;;;;;13.57;9.48;;;;;;;;;;4968703;28;20027;-67
2023/12/30 10:33:57;;;;;;;14.95;12.32;;;;;;;;;;4969562;28;20472;-67
2023/12/30 10:36:22;;;;;;;10.55;9.38;;;;;;;;;;4968859;28;20030;-69
2023/12/30 10:38:48;;;;;;;13.18;9.30;;;;;;;;;;4969571;28;20043;-65
2023/12/30 10:41:14;;;;;;;14.43;11.32;;;;;;;;;;4968096;28;20082;-66
2023/12/30 10:43:39;;;;;;;12.23;10.27;;;;;;;;;;4969394;28;20042;-66
2023/12/30 10:46:09;;;;;;;13.20;9.38;;;;;;;;;;4969633;28;20041;-65
2023/12/30 10:48:34;;;;;;;10.43;9.32;;;;;;;;;;4966212;28;20425;-67
2023/12/30 10:51:01;;;;;;;11.38;9.07;;;;;;;;;;4968500;28;20129;-67
2023/12/30 10:53:27;;;;;;;14.32;11.63;;;;;;;;;;4968661;28;20041;-67
2023/12/30 10:55:55;;;;;;;16.67;12.90;;;;;;;;;;4968225;28;20056;-68
2023/12/30 10:58:22;;;;;;;16.23;12.63;;;;;;;;;;4957781;28;20031;-71
2023/12/30 11:00:57;;;;;;;18.52;13.15;;;;;;;;;;4958536;28;20459;-69
2023/12/30 11:03:23;;;;;;;13.88;12.50;;;;;;;;;;4961114;28;20022;-66
2023/12/30 11:05:51;;;;;;;12.20;10.75;;;;;;;;;;4960176;28;20042;-67
2023/12/30 11:08:17;;;;;;;14.88;10.23;;;;;;;;;;4961276;28;20042;-66
2023/12/30 11:10:43;;;;;;;11.80;10.35;;;;;;;;;;4964477;28;20137;-66
2023/12/30 11:13:08;;;;;;;10.73;9.63;;;;;;;;;;4972286;28;20137;-67
2023/12/30 11:15:34;;;;;;;13.68;11.45;;;;;;;;;;4970148;28;20200;-67
2023/12/30 11:18:01;;;;;;;12.60;11.25;;;;;;;;;;4972914;28;20120;-66
2023/12/30 11:20:30;;;;;;;13.73;11.82;;;;;;;;;;4968076;28;20030;-68
2023/12/30 11:23:02;;;;;;;13.02;11.73;;;;;;;;;;4971210;28;20041;-68
2023/12/30 11:25:39;;;;;;;12.30;10.80;;;;;;;;;;4959862;28;20027;-68
2023/12/30 11:28:21;;;;;;;15.70;12.88;;;;;;;;;;4971124;28;20035;-68
2023/12/30 11:30:55;;;;;;;13.10;10.45;;;;;;;;;;4970407;28;20034;-67
2023/12/30 11:33:20;;;;;;;14.93;12.40;;;;;;;;;;4967304;28;20046;-67
2023/12/30 11:35:47;;;;;;;18.70;12.70;;;;;;;;;;4966385;28;20093;-67
2023/12/30 11:38:14;;;;;;;18.50;15.00;;;;;;;;;;4964725;28;20383;-68
2023/12/30 11:40:41;;;;;;;26.73;19.15;;;;;;;;;;4954834;28;20030;-69
2023/12/30 11:43:08;;;;;;;12.93;10.10;;;;;;;;;;4960619;28;20034;-69
2023/12/30 11:45:34;;;;;;;11.45;9.43;;;;;;;;;;4963856;28;20069;-70
2023/12/30 11:47:59;;;;;;;17.88;13.88;;;;;;;;;;4964065;28;20036;-69
2023/12/30 11:50:24;;;;;;;14.40;12.95;;;;;;;;;;4960277;28;20034;-71
2023/12/30 11:52:50;;;;;;;13.07;11.20;;;;;;;;;;4960206;28;20168;-70
2023/12/30 11:55:15;;;;;;;18.70;13.55;;;;;;;;;;4963374;28;20101;-70
2023/12/30 11:57:41;;;;;;;20.48;13.50;;;;;;;;;;4962380;28;20077;-69
2023/12/30 12:00:10;;;;;;;12.43;10.25;;;;;;;;;;4962952;28;20440;-69
2023/12/30 12:02:35;;;;;;;14.88;12.02;;;;;;;;;;4963420;28;20038;-69
2023/12/30 12:05:01;;;;;;;12.10;9.98;;;;;;;;;;4963901;28;20048;-69
2023/12/30 12:07:26;;;;;;;45.20;41.10;;;;;;;;;;4962625;28;20041;-68
2023/12/30 12:09:52;;;;;;;23.25;17.23;;;;;;;;;;4954276;28;20081;-69
2023/12/30 12:12:22;;;;;;;17.77;14.10;;;;;;;;;;4940058;28;20043;-69
2023/12/30 12:14:48;;;;;;;19.85;16.02;;;;;;;;;;4953859;28;20041;-71
2023/12/30 12:17:13;;;;;;;17.27;12.63;;;;;;;;;;4957572;28;20037;-68
2023/12/30 12:19:39;;;;;;;22.30;16.13;;;;;;;;;;4946519;28;20034;-69
2023/12/30 12:22:05;;;;;;;12.05;9.07;;;;;;;;;;4963950;28;20041;-69
2023/12/30 12:24:31;;;;;;;27.98;19.05;;;;;;;;;;4962406;28;20023;-69
2023/12/30 12:26:56;;;;;;;29.70;20.88;;;;;;;;;;4963582;28;20442;-69
2023/12/30 12:29:21;;;;;;;17.27;11.23;;;;;;;;;;4964027;28;20034;-69
2023/12/30 12:31:47;;;;;;;15.02;11.70;;;;;;;;;;4964626;28;20038;-69
2023/12/30 12:34:18;;;;;;;13.10;10.55;;;;;;;;;;4947050;28;20427;-67
2023/12/30 12:36:44;;;;;;;11.90;8.65;;;;;;;;;;4963160;28;20034;-68
2023/12/30 12:39:09;;;;;;;14.52;12.20;;;;;;;;;;4964464;28;20030;-67
2023/12/30 12:41:35;;;;;;;18.17;12.75;;;;;;;;;;4971679;28;20035;-68
2023/12/30 12:44:00;;;;;;;45.67;35.97;;;;;;;;;;4978253;28;20121;-69
2023/12/30 12:46:25;;;;;;;66.88;48.00;;;;;;;;;;4982552;28;20026;-68
2023/12/30 12:48:51;;;;;;;21.23;18.55;;;;;;;;;;4979656;28;20023;-69
2023/12/30 12:51:16;;;;;;;21.17;17.50;;;;;;;;;;4980213;28;20097;-71
2023/12/30 12:53:41;;;;;;;24.88;20.75;;;;;;;;;;4981953;28;20027;-67
2023/12/30 12:56:08;;;;;;;42.65;32.97;;;;;;;;;;4983534;28;20629;-70
2023/12/30 12:58:33;;;;;;;46.00;35.78;;;;;;;;;;4982931;28;20939;-69
2023/12/30 13:00:59;;;;;;;26.23;20.33;;;;;;;;;;4984064;28;20028;-68
2023/12/30 13:03:24;;;;;;;32.22;26.48;;;;;;;;;;4981675;28;20529;-67
2023/12/30 13:05:49;;;;;;;42.30;31.50;;;;;;;;;;4981249;28;20031;-67
2023/12/30 13:08:17;;;;;;;19.05;16.95;;;;;;;;;;4984778;28;20022;-69
2023/12/30 13:10:47;;;;;;;41.78;35.88;;;;;;;;;;4982494;28;20077;-68
2023/12/30 13:13:12;;;;;;;57.55;45.88;;;;;;;;;;4984309;28;20030;-68
2023/12/30 13:15:38;;;;;;;44.05;38.85;;;;;;;;;;4981434;28;20453;-69
2023/12/30 13:18:07;;;;;;;49.40;36.38;;;;;;;;;;4982017;28;20049;-69
2023/12/30 13:20:33;;;;;;;27.90;18.20;;;;;;;;;;4981791;28;20022;-69
2023/12/30 13:23:02;;;;;;;12.77;9.65;;;;;;;;;;4981746;28;20045;-68
2023/12/30 13:25:29;;;;;;;21.77;15.20;;;;;;;;;;4980579;28;20872;-69
2023/12/30 13:27:54;;;;;;;24.55;16.45;;;;;;;;;;4979318;28;20039;-70
2023/12/30 13:30:22;;;;;;;30.23;21.65;;;;;;;;;;4984310;28;20030;-68
2023/12/30 13:32:51;;;;;;;24.77;14.55;;;;;;;;;;4982077;28;20030;-69
2023/12/30 13:35:17;;;;;;;21.33;15.13;;;;;;;;;;4975846;28;20404;-69
2023/12/30 13:37:42;;;;;;;30.17;18.90;;;;;;;;;;4958571;28;20027;-70
2023/12/30 13:40:12;;;;;;;26.90;21.95;;;;;;;;;;4966407;28;20030;-70
2023/12/30 13:42:37;;;;;;;26.60;22.10;;;;;;;;;;4965520;28;20046;-68
2023/12/30 13:45:04;;;;;;;18.48;15.02;;;;;;;;;;4969019;28;20030;-68
2023/12/30 13:50:23;;;;;;;32.15;14.48;;;;;;;;;;4975954;28;20061;-68
2023/12/30 13:52:50;;;;;;;21.88;15.27;;;;;;;;;;4971327;28;20113;-70
2023/12/30 13:55:18;;;;;;;26.02;19.52;;;;;;;;;;4972170;28;20030;-69
2023/12/30 13:57:44;;;;;;;34.17;23.98;;;;;;;;;;4970555;28;20080;-70
2023/12/30 14:00:10;;;;;;;37.92;30.55;;;;;;;;;;4972651;28;20050;-70
2023/12/30 14:02:38;;;;;;;33.90;27.65;;;;;;;;;;4968930;28;20058;-69